Hauptseite
METAR-TAF:

METAR-TAF

Flughäfen :

Bangalore, Indien

Breite: 12-57-00N, Länge: 077-40-06E, Höhe: 888 m

Beobachtung

Neuester Wetterbericht von vor 2 Stunden und 18 Minuten, um 15:30 UTC
Wind 6 kt aus Südost
Temperatur 28°C
Luftfeuchtigkeit 32%
Luftdruck 1016 hPa
Sichtweite: 6000 m

METAR: VOBG 301530Z 13006KT 6000 NSC 28/10 Q1016 NOSIG

Zeit: 23:18 (17:48 UTC)

Prognose

Neuester Wetterbericht von vor 48 Minuten, um 17:00 UTC
Gültige Prognose vom 30 um 18 UTC bis 31 um 03 UTC
Wind 5 kt aus Ost/Südost
Sichtweite: 6000 m
Zeitweise
vom 31 um 00 UTC bis 31 um 03 UTC
Sichtweite: 4000 m
Leicht bewölkt in der Höhe von 1000 ft
feuchter Dunst

TAF: VOBG 301700Z 3018/3103 11005KT 6000 NSC TEMPO 3100/3103 4000 BR FEW010

Wetterbeobachtungen und Prognosen von mehr als 4000 Flughäfen (METAR und TAF Bericht).

Die verfügbaren Stationen werden durch gelbe und rote Markierungen auf der Karte dargestellt.

Führen Sie die Maus auf sie, um den Namen der Station zu sehen.

Darauf klicken, um die Beobachtung von Wetterbeobachtungen und Prognosen zu sehen.

Um die Karte zu ändern : klicken Sie auf den grünen Tasten mit einem schwarzen Kreuz Zum Vergrößern, auf den grünen Button mit einem Gedankenstrich zu verkleinern, oder auf die grünen Pfeile für benachbarte Karten.


METAR-TAF: